sensor_id;sensor_type;location;lat;lon;timestamp;temperature;humidity
11925;DHT22;6022;48.768;18.608;2024-03-02T00:00:22;10.60;99.90
11925;DHT22;6022;48.768;18.608;2024-03-02T00:02:53;10.60;99.90
11925;DHT22;6022;48.768;18.608;2024-03-02T00:05:22;10.70;99.90
11925;DHT22;6022;48.768;18.608;2024-03-02T00:07:58;10.50;99.90
11925;DHT22;6022;48.768;18.608;2024-03-02T00:10:38;10.70;99.90
11925;DHT22;6022;48.768;18.608;2024-03-02T00:13:13;10.70;99.90
11925;DHT22;6022;48.768;18.608;2024-03-02T00:15:42;10.70;99.90
11925;DHT22;6022;48.768;18.608;2024-03-02T00:18:31;10.70;99.90
11925;DHT22;6022;48.768;18.608;2024-03-02T00:21:03;10.60;99.90
11925;DHT22;6022;48.768;18.608;2024-03-02T00:23:37;10.70;99.90
11925;DHT22;6022;48.768;18.608;2024-03-02T00:26:06;10.70;99.90
11925;DHT22;6022;48.768;18.608;2024-03-02T00:28:38;10.70;99.90
11925;DHT22;6022;48.768;18.608;2024-03-02T00:31:13;10.80;99.90
11925;DHT22;6022;48.768;18.608;2024-03-02T00:33:49;10.60;99.90
11925;DHT22;6022;48.768;18.608;2024-03-02T00:36:25;10.80;99.90
11925;DHT22;6022;48.768;18.608;2024-03-02T00:39:05;10.70;99.90
11925;DHT22;6022;48.768;18.608;2024-03-02T00:41:42;10.80;99.90
11925;DHT22;6022;48.768;18.608;2024-03-02T00:44:12;10.70;99.90
11925;DHT22;6022;48.768;18.608;2024-03-02T00:46:50;10.80;99.90
11925;DHT22;6022;48.768;18.608;2024-03-02T00:49:25;10.70;99.90
11925;DHT22;6022;48.768;18.608;2024-03-02T00:51:56;10.70;99.90
11925;DHT22;6022;48.768;18.608;2024-03-02T00:54:28;10.70;99.90
11925;DHT22;6022;48.768;18.608;2024-03-02T00:56:59;10.70;99.90
11925;DHT22;6022;48.768;18.608;2024-03-02T00:59:28;10.60;99.90
11925;DHT22;6022;48.768;18.608;2024-03-02T01:01:57;10.70;99.90
11925;DHT22;6022;48.768;18.608;2024-03-02T01:04:26;10.80;99.90
11925;DHT22;6022;48.768;18.608;2024-03-02T01:06:56;10.90;99.90
11925;DHT22;6022;48.768;18.608;2024-03-02T01:09:26;10.90;99.90
11925;DHT22;6022;48.768;18.608;2024-03-02T01:12:01;10.90;99.90
11925;DHT22;6022;48.768;18.608;2024-03-02T01:14:30;10.80;99.90
11925;DHT22;6022;48.768;18.608;2024-03-02T01:16:58;10.60;99.90
11925;DHT22;6022;48.768;18.608;2024-03-02T01:19:29;10.90;99.90
11925;DHT22;6022;48.768;18.608;2024-03-02T01:21:57;11.10;99.90
11925;DHT22;6022;48.768;18.608;2024-03-02T01:24:30;10.90;99.90
11925;DHT22;6022;48.768;18.608;2024-03-02T01:27:02;10.70;99.90
11925;DHT22;6022;48.768;18.608;2024-03-02T01:29:30;11.00;99.90
11925;DHT22;6022;48.768;18.608;2024-03-02T01:32:00;10.90;99.90
11925;DHT22;6022;48.768;18.608;2024-03-02T01:34:34;10.90;99.90
11925;DHT22;6022;48.768;18.608;2024-03-02T01:37:03;10.90;99.90
11925;DHT22;6022;48.768;18.608;2024-03-02T01:39:35;10.90;99.90
11925;DHT22;6022;48.768;18.608;2024-03-02T01:42:08;10.80;99.90
11925;DHT22;6022;48.768;18.608;2024-03-02T01:44:42;10.70;99.90
11925;DHT22;6022;48.768;18.608;2024-03-02T01:47:10;10.70;99.90
11925;DHT22;6022;48.768;18.608;2024-03-02T01:49:41;10.70;99.90
11925;DHT22;6022;48.768;18.608;2024-03-02T01:52:09;10.80;99.90
11925;DHT22;6022;48.768;18.608;2024-03-02T01:54:38;10.60;99.90
11925;DHT22;6022;48.768;18.608;2024-03-02T01:57:10;10.70;99.90
11925;DHT22;6022;48.768;18.608;2024-03-02T01:59:39;10.70;99.90
11925;DHT22;6022;48.768;18.608;2024-03-02T02:02:08;10.70;99.90
11925;DHT22;6022;48.768;18.608;2024-03-02T02:04:36;10.70;99.90
11925;DHT22;6022;48.768;18.608;2024-03-02T02:07:04;10.70;99.90
11925;DHT22;6022;48.768;18.608;2024-03-02T02:09:34;10.80;99.90
11925;DHT22;6022;48.768;18.608;2024-03-02T02:12:05;10.70;99.90
11925;DHT22;6022;48.768;18.608;2024-03-02T02:14:36;10.60;99.90
11925;DHT22;6022;48.768;18.608;2024-03-02T02:17:04;10.60;99.90
11925;DHT22;6022;48.768;18.608;2024-03-02T02:19:32;10.40;99.90
11925;DHT22;6022;48.768;18.608;2024-03-02T02:22:04;10.50;99.90
11925;DHT22;6022;48.768;18.608;2024-03-02T02:24:33;10.50;99.90
11925;DHT22;6022;48.768;18.608;2024-03-02T02:27:01;10.50;99.90
11925;DHT22;6022;48.768;18.608;2024-03-02T02:29:30;10.60;99.90
11925;DHT22;6022;48.768;18.608;2024-03-02T02:32:00;10.60;99.90
11925;DHT22;6022;48.768;18.608;2024-03-02T02:34:34;10.50;99.90
11925;DHT22;6022;48.768;18.608;2024-03-02T02:37:05;10.60;99.90
11925;DHT22;6022;48.768;18.608;2024-03-02T02:39:37;10.50;99.90
11925;DHT22;6022;48.768;18.608;2024-03-02T02:42:06;10.50;99.90
11925;DHT22;6022;48.768;18.608;2024-03-02T02:44:43;10.50;99.90
11925;DHT22;6022;48.768;18.608;2024-03-02T02:47:14;10.40;99.90
11925;DHT22;6022;48.768;18.608;2024-03-02T02:49:42;10.50;99.90
11925;DHT22;6022;48.768;18.608;2024-03-02T02:52:11;10.50;99.90
11925;DHT22;6022;48.768;18.608;2024-03-02T02:54:40;10.40;99.90
11925;DHT22;6022;48.768;18.608;2024-03-02T02:57:11;10.50;99.90
11925;DHT22;6022;48.768;18.608;2024-03-02T02:59:43;10.50;99.90
11925;DHT22;6022;48.768;18.608;2024-03-02T03:02:14;10.40;99.90
11925;DHT22;6022;48.768;18.608;2024-03-02T03:04:43;10.40;99.90
11925;DHT22;6022;48.768;18.608;2024-03-02T03:07:16;10.40;99.90
11925;DHT22;6022;48.768;18.608;2024-03-02T03:09:46;10.30;99.90
11925;DHT22;6022;48.768;18.608;2024-03-02T03:12:14;10.30;99.90
11925;DHT22;6022;48.768;18.608;2024-03-02T03:14:45;10.40;99.90
11925;DHT22;6022;48.768;18.608;2024-03-02T03:17:13;10.40;99.90
11925;DHT22;6022;48.768;18.608;2024-03-02T03:19:45;10.40;99.90
11925;DHT22;6022;48.768;18.608;2024-03-02T03:22:14;10.40;99.90
11925;DHT22;6022;48.768;18.608;2024-03-02T03:24:42;10.30;99.90
11925;DHT22;6022;48.768;18.608;2024-03-02T03:27:14;10.60;99.90
11925;DHT22;6022;48.768;18.608;2024-03-02T03:29:43;10.40;99.90
11925;DHT22;6022;48.768;18.608;2024-03-02T03:32:12;10.40;99.90
11925;DHT22;6022;48.768;18.608;2024-03-02T03:34:47;10.40;99.90
11925;DHT22;6022;48.768;18.608;2024-03-02T03:37:16;10.40;99.90
11925;DHT22;6022;48.768;18.608;2024-03-02T03:39:45;10.50;99.90
11925;DHT22;6022;48.768;18.608;2024-03-02T03:42:14;10.30;99.90
11925;DHT22;6022;48.768;18.608;2024-03-02T03:44:42;10.40;99.90
11925;DHT22;6022;48.768;18.608;2024-03-02T03:47:11;10.60;99.90
11925;DHT22;6022;48.768;18.608;2024-03-02T03:49:39;10.30;99.90
11925;DHT22;6022;48.768;18.608;2024-03-02T03:52:08;10.30;99.90
11925;DHT22;6022;48.768;18.608;2024-03-02T03:54:36;10.30;99.90
11925;DHT22;6022;48.768;18.608;2024-03-02T03:57:06;10.30;99.90
11925;DHT22;6022;48.768;18.608;2024-03-02T03:59:34;10.20;99.90
11925;DHT22;6022;48.768;18.608;2024-03-02T04:02:04;10.20;99.90
11925;DHT22;6022;48.768;18.608;2024-03-02T04:04:32;10.10;99.90
11925;DHT22;6022;48.768;18.608;2024-03-02T04:07:01;9.80;99.90
11925;DHT22;6022;48.768;18.608;2024-03-02T04:09:29;9.80;99.90
11925;DHT22;6022;48.768;18.608;2024-03-02T04:11:57;10.00;99.90
11925;DHT22;6022;48.768;18.608;2024-03-02T04:14:26;10.10;99.90
11925;DHT22;6022;48.768;18.608;2024-03-02T04:16:55;10.30;99.90
11925;DHT22;6022;48.768;18.608;2024-03-02T04:19:24;10.30;99.90
11925;DHT22;6022;48.768;18.608;2024-03-02T04:21:52;9.70;99.90
11925;DHT22;6022;48.768;18.608;2024-03-02T04:24:21;10.10;99.90
11925;DHT22;6022;48.768;18.608;2024-03-02T04:26:50;9.60;99.90
11925;DHT22;6022;48.768;18.608;2024-03-02T04:29:20;10.10;99.90
11925;DHT22;6022;48.768;18.608;2024-03-02T04:31:52;10.20;99.90
11925;DHT22;6022;48.768;18.608;2024-03-02T04:34:23;9.80;99.90
11925;DHT22;6022;48.768;18.608;2024-03-02T04:36:52;9.80;99.90
11925;DHT22;6022;48.768;18.608;2024-03-02T04:39:20;9.70;99.90
11925;DHT22;6022;48.768;18.608;2024-03-02T04:41:49;9.50;99.90
11925;DHT22;6022;48.768;18.608;2024-03-02T04:44:18;10.00;99.90
11925;DHT22;6022;48.768;18.608;2024-03-02T04:46:47;9.70;99.90
11925;DHT22;6022;48.768;18.608;2024-03-02T04:49:16;9.70;99.90
11925;DHT22;6022;48.768;18.608;2024-03-02T04:51:44;9.60;99.90
11925;DHT22;6022;48.768;18.608;2024-03-02T04:54:16;9.60;99.90
11925;DHT22;6022;48.768;18.608;2024-03-02T04:56:44;9.60;99.90
11925;DHT22;6022;48.768;18.608;2024-03-02T04:59:18;9.60;99.90
11925;DHT22;6022;48.768;18.608;2024-03-02T05:01:47;9.60;99.90
11925;DHT22;6022;48.768;18.608;2024-03-02T05:04:17;9.70;99.90
11925;DHT22;6022;48.768;18.608;2024-03-02T05:06:45;9.80;99.90
11925;DHT22;6022;48.768;18.608;2024-03-02T05:09:21;9.80;99.90
11925;DHT22;6022;48.768;18.608;2024-03-02T05:11:49;10.00;99.90
11925;DHT22;6022;48.768;18.608;2024-03-02T05:14:38;10.00;99.90
11925;DHT22;6022;48.768;18.608;2024-03-02T05:17:06;10.20;99.90
11925;DHT22;6022;48.768;18.608;2024-03-02T05:19:35;10.20;99.90
11925;DHT22;6022;48.768;18.608;2024-03-02T05:22:07;10.00;99.90
11925;DHT22;6022;48.768;18.608;2024-03-02T05:24:35;10.00;99.90
11925;DHT22;6022;48.768;18.608;2024-03-02T05:27:07;10.00;99.90
11925;DHT22;6022;48.768;18.608;2024-03-02T05:29:38;10.10;99.90
11925;DHT22;6022;48.768;18.608;2024-03-02T05:32:07;9.70;99.90
11925;DHT22;6022;48.768;18.608;2024-03-02T05:34:40;10.00;99.90
11925;DHT22;6022;48.768;18.608;2024-03-02T05:37:09;9.90;99.90
11925;DHT22;6022;48.768;18.608;2024-03-02T05:39:41;9.80;99.90
11925;DHT22;6022;48.768;18.608;2024-03-02T05:42:12;10.20;99.90
11925;DHT22;6022;48.768;18.608;2024-03-02T05:44:52;10.00;99.90
11925;DHT22;6022;48.768;18.608;2024-03-02T05:47:23;10.30;99.90
11925;DHT22;6022;48.768;18.608;2024-03-02T05:49:51;9.80;99.90
11925;DHT22;6022;48.768;18.608;2024-03-02T05:52:24;10.00;99.90
11925;DHT22;6022;48.768;18.608;2024-03-02T05:54:55;9.70;99.90
11925;DHT22;6022;48.768;18.608;2024-03-02T05:57:24;9.90;99.90
11925;DHT22;6022;48.768;18.608;2024-03-02T06:00:12;9.80;99.90
11925;DHT22;6022;48.768;18.608;2024-03-02T06:02:44;10.00;99.90
11925;DHT22;6022;48.768;18.608;2024-03-02T06:05:16;9.90;99.90
11925;DHT22;6022;48.768;18.608;2024-03-02T06:07:49;9.70;99.90
11925;DHT22;6022;48.768;18.608;2024-03-02T06:10:18;9.70;99.90
11925;DHT22;6022;48.768;18.608;2024-03-02T06:12:47;9.80;99.90
11925;DHT22;6022;48.768;18.608;2024-03-02T06:15:15;10.00;99.90
11925;DHT22;6022;48.768;18.608;2024-03-02T06:17:44;9.70;99.90
11925;DHT22;6022;48.768;18.608;2024-03-02T06:20:13;9.90;99.90
11925;DHT22;6022;48.768;18.608;2024-03-02T06:22:43;9.90;99.90
11925;DHT22;6022;48.768;18.608;2024-03-02T06:25:14;10.30;99.90
11925;DHT22;6022;48.768;18.608;2024-03-02T06:27:43;10.50;99.90
11925;DHT22;6022;48.768;18.608;2024-03-02T06:30:12;10.50;99.90
11925;DHT22;6022;48.768;18.608;2024-03-02T06:32:46;10.30;99.90
11925;DHT22;6022;48.768;18.608;2024-03-02T06:35:14;10.60;99.90
11925;DHT22;6022;48.768;18.608;2024-03-02T06:37:43;10.90;99.90
11925;DHT22;6022;48.768;18.608;2024-03-02T06:40:12;11.00;99.90
11925;DHT22;6022;48.768;18.608;2024-03-02T06:42:42;10.80;99.90
11925;DHT22;6022;48.768;18.608;2024-03-02T06:45:11;10.80;99.90
11925;DHT22;6022;48.768;18.608;2024-03-02T06:47:39;10.90;99.90
11925;DHT22;6022;48.768;18.608;2024-03-02T06:50:09;10.90;99.90
11925;DHT22;6022;48.768;18.608;2024-03-02T06:52:39;10.80;99.90
11925;DHT22;6022;48.768;18.608;2024-03-02T06:55:08;10.60;99.90
11925;DHT22;6022;48.768;18.608;2024-03-02T06:57:36;11.00;99.90
11925;DHT22;6022;48.768;18.608;2024-03-02T07:00:06;11.10;99.90
11925;DHT22;6022;48.768;18.608;2024-03-02T07:02:37;10.70;99.90
11925;DHT22;6022;48.768;18.608;2024-03-02T07:05:05;11.00;99.90
11925;DHT22;6022;48.768;18.608;2024-03-02T07:07:34;10.70;99.90
11925;DHT22;6022;48.768;18.608;2024-03-02T07:10:07;10.80;99.90
11925;DHT22;6022;48.768;18.608;2024-03-02T07:12:37;10.70;99.90
11925;DHT22;6022;48.768;18.608;2024-03-02T07:15:08;10.70;99.90
11925;DHT22;6022;48.768;18.608;2024-03-02T07:17:56;10.50;99.90
11925;DHT22;6022;48.768;18.608;2024-03-02T07:20:25;10.60;99.90
11925;DHT22;6022;48.768;18.608;2024-03-02T07:22:53;10.20;99.90
11925;DHT22;6022;48.768;18.608;2024-03-02T07:25:29;10.40;99.90
11925;DHT22;6022;48.768;18.608;2024-03-02T07:28:04;10.20;99.90
11925;DHT22;6022;48.768;18.608;2024-03-02T07:30:37;10.40;99.90
11925;DHT22;6022;48.768;18.608;2024-03-02T07:33:06;10.40;99.90
11925;DHT22;6022;48.768;18.608;2024-03-02T07:35:38;10.20;99.90
11925;DHT22;6022;48.768;18.608;2024-03-02T07:38:13;10.20;99.90
11925;DHT22;6022;48.768;18.608;2024-03-02T07:40:47;10.40;99.90
11925;DHT22;6022;48.768;18.608;2024-03-02T07:43:21;10.70;99.90
11925;DHT22;6022;48.768;18.608;2024-03-02T07:45:58;10.20;99.90
11925;DHT22;6022;48.768;18.608;2024-03-02T07:48:31;10.40;99.90
11925;DHT22;6022;48.768;18.608;2024-03-02T07:51:02;10.30;99.90
11925;DHT22;6022;48.768;18.608;2024-03-02T07:53:39;10.60;99.90
11925;DHT22;6022;48.768;18.608;2024-03-02T07:56:09;10.50;99.90
11925;DHT22;6022;48.768;18.608;2024-03-02T07:58:37;10.40;99.90
11925;DHT22;6022;48.768;18.608;2024-03-02T08:01:08;10.30;99.90
11925;DHT22;6022;48.768;18.608;2024-03-02T08:03:37;10.40;99.90
11925;DHT22;6022;48.768;18.608;2024-03-02T08:06:10;10.40;99.90
11925;DHT22;6022;48.768;18.608;2024-03-02T08:08:51;10.40;99.90
11925;DHT22;6022;48.768;18.608;2024-03-02T08:11:21;10.40;99.90
11925;DHT22;6022;48.768;18.608;2024-03-02T08:13:50;10.40;99.90
11925;DHT22;6022;48.768;18.608;2024-03-02T08:16:30;10.60;99.90
11925;DHT22;6022;48.768;18.608;2024-03-02T08:19:00;10.50;99.90
11925;DHT22;6022;48.768;18.608;2024-03-02T08:21:31;10.60;99.90
11925;DHT22;6022;48.768;18.608;2024-03-02T08:24:07;10.50;99.90
11925;DHT22;6022;48.768;18.608;2024-03-02T08:26:42;10.50;99.90
11925;DHT22;6022;48.768;18.608;2024-03-02T08:29:11;10.50;99.90
11925;DHT22;6022;48.768;18.608;2024-03-02T08:31:40;10.60;99.90
11925;DHT22;6022;48.768;18.608;2024-03-02T08:34:09;10.50;99.90
11925;DHT22;6022;48.768;18.608;2024-03-02T08:36:37;10.60;99.90
11925;DHT22;6022;48.768;18.608;2024-03-02T08:39:10;10.40;99.90
11925;DHT22;6022;48.768;18.608;2024-03-02T08:41:47;10.40;99.90
11925;DHT22;6022;48.768;18.608;2024-03-02T08:44:16;10.50;99.90
11925;DHT22;6022;48.768;18.608;2024-03-02T08:46:52;10.50;99.90
11925;DHT22;6022;48.768;18.608;2024-03-02T08:49:20;10.50;99.90
11925;DHT22;6022;48.768;18.608;2024-03-02T08:51:51;10.50;99.90
11925;DHT22;6022;48.768;18.608;2024-03-02T08:54:22;10.50;99.90
11925;DHT22;6022;48.768;18.608;2024-03-02T08:56:50;10.50;99.90
11925;DHT22;6022;48.768;18.608;2024-03-02T08:59:18;10.70;99.90
11925;DHT22;6022;48.768;18.608;2024-03-02T09:01:46;10.20;99.90
11925;DHT22;6022;48.768;18.608;2024-03-02T09:04:24;10.70;99.90
11925;DHT22;6022;48.768;18.608;2024-03-02T09:06:54;10.50;99.90
11925;DHT22;6022;48.768;18.608;2024-03-02T09:09:24;10.20;99.90
11925;DHT22;6022;48.768;18.608;2024-03-02T09:11:52;10.50;99.90
11925;DHT22;6022;48.768;18.608;2024-03-02T09:14:25;10.60;99.90
11925;DHT22;6022;48.768;18.608;2024-03-02T09:16:53;10.60;99.90
11925;DHT22;6022;48.768;18.608;2024-03-02T09:19:21;10.60;99.90
11925;DHT22;6022;48.768;18.608;2024-03-02T09:21:49;10.50;99.90
11925;DHT22;6022;48.768;18.608;2024-03-02T09:24:18;10.60;99.90
11925;DHT22;6022;48.768;18.608;2024-03-02T09:26:46;10.40;99.90
11925;DHT22;6022;48.768;18.608;2024-03-02T09:29:13;10.80;99.90
11925;DHT22;6022;48.768;18.608;2024-03-02T09:31:42;10.70;99.90
11925;DHT22;6022;48.768;18.608;2024-03-02T09:34:10;10.50;99.90
11925;DHT22;6022;48.768;18.608;2024-03-02T09:36:39;10.50;99.90
11925;DHT22;6022;48.768;18.608;2024-03-02T09:39:14;10.50;99.90
11925;DHT22;6022;48.768;18.608;2024-03-02T09:41:43;10.50;99.90
11925;DHT22;6022;48.768;18.608;2024-03-02T09:44:12;10.50;99.90
11925;DHT22;6022;48.768;18.608;2024-03-02T09:46:49;10.60;99.90
11925;DHT22;6022;48.768;18.608;2024-03-02T09:49:18;10.60;99.90
11925;DHT22;6022;48.768;18.608;2024-03-02T09:51:48;10.50;99.90
11925;DHT22;6022;48.768;18.608;2024-03-02T09:54:17;10.50;99.90
11925;DHT22;6022;48.768;18.608;2024-03-02T09:56:54;10.60;99.90
11925;DHT22;6022;48.768;18.608;2024-03-02T09:59:23;10.70;99.90
11925;DHT22;6022;48.768;18.608;2024-03-02T10:02:02;10.60;99.90
11925;DHT22;6022;48.768;18.608;2024-03-02T10:04:30;10.50;99.90
11925;DHT22;6022;48.768;18.608;2024-03-02T10:07:19;10.50;99.90
11925;DHT22;6022;48.768;18.608;2024-03-02T10:09:49;10.50;99.90
11925;DHT22;6022;48.768;18.608;2024-03-02T10:12:19;10.80;99.90
11925;DHT22;6022;48.768;18.608;2024-03-02T10:14:47;10.50;99.90
11925;DHT22;6022;48.768;18.608;2024-03-02T10:17:17;10.70;99.90
11925;DHT22;6022;48.768;18.608;2024-03-02T10:19:45;10.70;99.90
11925;DHT22;6022;48.768;18.608;2024-03-02T10:22:13;10.70;99.90
11925;DHT22;6022;48.768;18.608;2024-03-02T10:24:43;10.70;99.90
11925;DHT22;6022;48.768;18.608;2024-03-02T10:27:17;10.70;99.90
11925;DHT22;6022;48.768;18.608;2024-03-02T10:29:50;11.00;99.90
11925;DHT22;6022;48.768;18.608;2024-03-02T10:32:22;10.50;99.90
11925;DHT22;6022;48.768;18.608;2024-03-02T10:34:50;10.70;99.90
11925;DHT22;6022;48.768;18.608;2024-03-02T10:37:23;10.90;99.90
11925;DHT22;6022;48.768;18.608;2024-03-02T10:39:52;10.80;99.90
11925;DHT22;6022;48.768;18.608;2024-03-02T10:42:23;10.70;99.90
11925;DHT22;6022;48.768;18.608;2024-03-02T10:44:53;10.90;99.90
11925;DHT22;6022;48.768;18.608;2024-03-02T10:47:23;11.10;99.90
11925;DHT22;6022;48.768;18.608;2024-03-02T10:49:52;10.90;99.90
11925;DHT22;6022;48.768;18.608;2024-03-02T10:52:23;10.80;99.90
11925;DHT22;6022;48.768;18.608;2024-03-02T10:54:50;10.90;99.90
11925;DHT22;6022;48.768;18.608;2024-03-02T10:57:21;10.90;99.90
11925;DHT22;6022;48.768;18.608;2024-03-02T11:00:02;10.90;99.90
11925;DHT22;6022;48.768;18.608;2024-03-02T11:02:32;10.60;99.90
11925;DHT22;6022;48.768;18.608;2024-03-02T11:05:06;10.70;99.90
11925;DHT22;6022;48.768;18.608;2024-03-02T11:07:37;10.70;99.90
11925;DHT22;6022;48.768;18.608;2024-03-02T11:10:15;10.70;99.90
11925;DHT22;6022;48.768;18.608;2024-03-02T11:12:55;10.30;99.90
11925;DHT22;6022;48.768;18.608;2024-03-02T11:15:32;10.50;99.90
11925;DHT22;6022;48.768;18.608;2024-03-02T11:18:11;10.40;99.90
11925;DHT22;6022;48.768;18.608;2024-03-02T11:20:44;10.70;99.90
11925;DHT22;6022;48.768;18.608;2024-03-02T11:23:16;10.40;99.90
11925;DHT22;6022;48.768;18.608;2024-03-02T11:25:46;10.50;99.90
11925;DHT22;6022;48.768;18.608;2024-03-02T11:28:16;10.70;99.90
11925;DHT22;6022;48.768;18.608;2024-03-02T11:31:08;10.60;99.90
11925;DHT22;6022;48.768;18.608;2024-03-02T11:33:37;10.60;99.90
11925;DHT22;6022;48.768;18.608;2024-03-02T11:36:19;10.50;99.90
11925;DHT22;6022;48.768;18.608;2024-03-02T11:39:04;10.80;99.90
11925;DHT22;6022;48.768;18.608;2024-03-02T11:41:43;11.10;99.90
11925;DHT22;6022;48.768;18.608;2024-03-02T11:44:16;11.00;99.90
11925;DHT22;6022;48.768;18.608;2024-03-02T11:47:08;11.00;99.90
11925;DHT22;6022;48.768;18.608;2024-03-02T11:52:17;10.90;99.90
11925;DHT22;6022;48.768;18.608;2024-03-02T11:54:46;11.10;99.90
11925;DHT22;6022;48.768;18.608;2024-03-02T11:57:19;11.10;99.90
11925;DHT22;6022;48.768;18.608;2024-03-02T11:59:50;11.10;99.90
11925;DHT22;6022;48.768;18.608;2024-03-02T12:02:20;11.00;99.90
11925;DHT22;6022;48.768;18.608;2024-03-02T12:04:58;11.10;99.90
11925;DHT22;6022;48.768;18.608;2024-03-02T12:07:30;11.30;99.90
11925;DHT22;6022;48.768;18.608;2024-03-02T12:10:01;11.30;99.90
11925;DHT22;6022;48.768;18.608;2024-03-02T12:12:33;11.30;99.90
11925;DHT22;6022;48.768;18.608;2024-03-02T12:15:08;11.40;99.90
11925;DHT22;6022;48.768;18.608;2024-03-02T12:17:42;11.40;99.90
11925;DHT22;6022;48.768;18.608;2024-03-02T12:20:17;11.50;99.90
11925;DHT22;6022;48.768;18.608;2024-03-02T12:22:46;11.50;99.90
11925;DHT22;6022;48.768;18.608;2024-03-02T12:25:15;11.40;99.90
11925;DHT22;6022;48.768;18.608;2024-03-02T12:27:58;11.40;99.90
11925;DHT22;6022;48.768;18.608;2024-03-02T12:30:35;11.10;99.90
11925;DHT22;6022;48.768;18.608;2024-03-02T12:33:04;11.40;99.90
11925;DHT22;6022;48.768;18.608;2024-03-02T12:35:33;11.30;99.90
11925;DHT22;6022;48.768;18.608;2024-03-02T12:38:01;11.00;99.90
11925;DHT22;6022;48.768;18.608;2024-03-02T12:40:30;11.20;99.90
11925;DHT22;6022;48.768;18.608;2024-03-02T12:43:03;11.00;99.90
11925;DHT22;6022;48.768;18.608;2024-03-02T12:45:33;11.10;99.90
11925;DHT22;6022;48.768;18.608;2024-03-02T12:48:04;11.20;99.90
11925;DHT22;6022;48.768;18.608;2024-03-02T12:50:33;11.20;99.90
11925;DHT22;6022;48.768;18.608;2024-03-02T12:53:04;11.30;99.90
11925;DHT22;6022;48.768;18.608;2024-03-02T12:55:33;11.20;99.90
11925;DHT22;6022;48.768;18.608;2024-03-02T12:58:01;11.10;99.90
11925;DHT22;6022;48.768;18.608;2024-03-02T13:00:30;10.80;99.90
11925;DHT22;6022;48.768;18.608;2024-03-02T13:03:04;10.90;99.90
11925;DHT22;6022;48.768;18.608;2024-03-02T13:05:34;11.40;99.90
11925;DHT22;6022;48.768;18.608;2024-03-02T13:08:07;11.20;99.90
11925;DHT22;6022;48.768;18.608;2024-03-02T13:10:37;11.20;99.90
11925;DHT22;6022;48.768;18.608;2024-03-02T13:13:06;11.10;99.90
11925;DHT22;6022;48.768;18.608;2024-03-02T13:15:39;11.10;99.90
11925;DHT22;6022;48.768;18.608;2024-03-02T13:18:08;11.10;99.90
11925;DHT22;6022;48.768;18.608;2024-03-02T13:20:39;11.10;99.90
11925;DHT22;6022;48.768;18.608;2024-03-02T13:23:08;10.80;99.90
11925;DHT22;6022;48.768;18.608;2024-03-02T13:25:38;11.00;99.90
11925;DHT22;6022;48.768;18.608;2024-03-02T13:28:07;11.00;99.90
11925;DHT22;6022;48.768;18.608;2024-03-02T13:30:39;11.00;99.90
11925;DHT22;6022;48.768;18.608;2024-03-02T13:33:18;11.00;99.90
11925;DHT22;6022;48.768;18.608;2024-03-02T13:36:19;11.30;99.90
11925;DHT22;6022;48.768;18.608;2024-03-02T13:39:42;10.80;99.90
11925;DHT22;6022;48.768;18.608;2024-03-02T13:42:18;11.00;99.90
11925;DHT22;6022;48.768;18.608;2024-03-02T13:45:11;11.30;99.90
11925;DHT22;6022;48.768;18.608;2024-03-02T13:47:44;10.90;99.90
11925;DHT22;6022;48.768;18.608;2024-03-02T13:50:16;11.10;99.90
11925;DHT22;6022;48.768;18.608;2024-03-02T13:52:45;10.90;99.90
11925;DHT22;6022;48.768;18.608;2024-03-02T13:55:17;10.90;99.90
11925;DHT22;6022;48.768;18.608;2024-03-02T13:57:47;10.70;99.90
11925;DHT22;6022;48.768;18.608;2024-03-02T14:00:20;11.00;99.90
11925;DHT22;6022;48.768;18.608;2024-03-02T14:02:48;11.20;99.90
11925;DHT22;6022;48.768;18.608;2024-03-02T14:05:17;11.40;99.90
11925;DHT22;6022;48.768;18.608;2024-03-02T14:07:48;10.80;99.90
11925;DHT22;6022;48.768;18.608;2024-03-02T14:10:17;11.20;99.90
11925;DHT22;6022;48.768;18.608;2024-03-02T14:12:50;11.00;99.90
11925;DHT22;6022;48.768;18.608;2024-03-02T14:15:22;11.00;99.90
11925;DHT22;6022;48.768;18.608;2024-03-02T14:17:52;11.20;99.90
11925;DHT22;6022;48.768;18.608;2024-03-02T14:20:19;10.90;99.90
11925;DHT22;6022;48.768;18.608;2024-03-02T14:22:49;11.00;99.90
11925;DHT22;6022;48.768;18.608;2024-03-02T14:25:17;10.70;99.90
11925;DHT22;6022;48.768;18.608;2024-03-02T14:27:46;11.00;99.90
11925;DHT22;6022;48.768;18.608;2024-03-02T14:30:35;11.00;99.90
11925;DHT22;6022;48.768;18.608;2024-03-02T14:33:04;11.00;99.90
11925;DHT22;6022;48.768;18.608;2024-03-02T14:35:32;11.30;99.90
11925;DHT22;6022;48.768;18.608;2024-03-02T14:38:00;11.20;99.90
11925;DHT22;6022;48.768;18.608;2024-03-02T14:40:28;11.00;99.90
11925;DHT22;6022;48.768;18.608;2024-03-02T14:42:58;11.00;99.90
11925;DHT22;6022;48.768;18.608;2024-03-02T14:45:26;11.10;99.90
11925;DHT22;6022;48.768;18.608;2024-03-02T14:47:55;10.90;99.90
11925;DHT22;6022;48.768;18.608;2024-03-02T14:50:23;10.90;99.90
11925;DHT22;6022;48.768;18.608;2024-03-02T14:52:52;11.00;99.90
11925;DHT22;6022;48.768;18.608;2024-03-02T14:55:24;10.90;99.90
11925;DHT22;6022;48.768;18.608;2024-03-02T14:57:52;11.00;99.90
11925;DHT22;6022;48.768;18.608;2024-03-02T15:00:22;11.00;99.90
11925;DHT22;6022;48.768;18.608;2024-03-02T15:02:53;11.10;99.90
11925;DHT22;6022;48.768;18.608;2024-03-02T15:05:21;11.00;99.90
11925;DHT22;6022;48.768;18.608;2024-03-02T15:07:49;11.00;99.90
11925;DHT22;6022;48.768;18.608;2024-03-02T15:10:23;11.00;99.90
11925;DHT22;6022;48.768;18.608;2024-03-02T15:12:52;11.00;99.90
11925;DHT22;6022;48.768;18.608;2024-03-02T15:15:20;10.60;99.90
11925;DHT22;6022;48.768;18.608;2024-03-02T15:17:48;10.70;99.90
11925;DHT22;6022;48.768;18.608;2024-03-02T15:20:21;10.90;99.90
11925;DHT22;6022;48.768;18.608;2024-03-02T15:22:49;11.00;99.90
11925;DHT22;6022;48.768;18.608;2024-03-02T15:25:18;11.00;99.90
11925;DHT22;6022;48.768;18.608;2024-03-02T15:27:48;10.80;99.90
11925;DHT22;6022;48.768;18.608;2024-03-02T15:30:16;10.80;99.90
11925;DHT22;6022;48.768;18.608;2024-03-02T15:32:48;10.90;99.90
11925;DHT22;6022;48.768;18.608;2024-03-02T15:35:20;10.60;99.90
11925;DHT22;6022;48.768;18.608;2024-03-02T15:38:08;11.00;99.90
11925;DHT22;6022;48.768;18.608;2024-03-02T15:40:57;10.90;99.90
11925;DHT22;6022;48.768;18.608;2024-03-02T15:43:51;10.80;99.90
11925;DHT22;6022;48.768;18.608;2024-03-02T15:46:22;11.10;99.90
11925;DHT22;6022;48.768;18.608;2024-03-02T15:48:55;10.80;99.90
11925;DHT22;6022;48.768;18.608;2024-03-02T15:51:25;10.80;99.90
11925;DHT22;6022;48.768;18.608;2024-03-02T15:53:54;10.90;99.90
11925;DHT22;6022;48.768;18.608;2024-03-02T15:56:24;10.80;99.90
11925;DHT22;6022;48.768;18.608;2024-03-02T15:58:56;10.80;99.90
11925;DHT22;6022;48.768;18.608;2024-03-02T16:01:23;10.80;99.90